Time;durP1;ratioP1;P1;durP2;ratioP2;P2;SDS_P1;SDS_P2;PMS_P1;PMS_P2;Temp;Humidity;BMP_temperature;BMP_pressure;BME280_temperature;BME280_humidity;BME280_pressure;Samples;Min_cycle;Max_cycle;Signal;HPM_P1;HPM_P2
2024/01/23 00:02:24;;;;;;;;;;;;;;;25.69;20.45;98249.44;4954740;28;20374;-79
2024/01/23 00:04:50;;;;;;;;;;;;;;;25.46;20.68;98247.63;4967638;28;20361;-79
2024/01/23 00:07:16;;;;;;;;;;;;;;;24.16;22.46;98253.25;4982065;28;19929;-79
2024/01/23 00:09:42;;;;;;;;;;;;;;;24.53;22.27;98244.47;4971686;28;19922;-79
2024/01/23 00:12:08;;;;;;;;;;;;;;;24.39;22.21;98241.97;4946974;29;20297;-79
2024/01/23 00:14:34;;;;;;;;;;;;;;;24.30;22.27;98245.38;4972593;28;19922;-79
2024/01/23 00:17:00;;;;;;;;;;;;;;;24.68;21.68;98242.97;4970339;28;19922;-79
2024/01/23 00:19:26;;;;;;;;;;;;;;;25.06;21.36;98234.91;4960402;28;19931;-79
2024/01/23 00:21:52;;;;;;;;;;;;;;;24.59;21.66;98232.34;4962836;28;19928;-79
2024/01/23 00:24:18;;;;;;;;;;;;;;;24.96;21.39;98227.53;4963881;28;19918;-79
2024/01/23 00:26:44;;;;;;;;;;;;;;;25.24;21.18;98224.84;4984944;28;19922;-79
2024/01/23 00:29:11;;;;;;;;;;;;;;;25.54;21.09;98232.16;4966185;28;19927;-79
2024/01/23 00:31:37;;;;;;;;;;;;;;;25.50;21.14;98237.06;4962258;28;19922;-79
2024/01/23 00:34:03;;;;;;;;;;;;;;;25.05;21.65;98230.50;4960933;28;20017;-79
2024/01/23 00:36:29;;;;;;;;;;;;;;;24.31;22.34;98255.38;4970746;28;19930;-79
2024/01/23 00:38:55;;;;;;;;;;;;;;;24.57;22.39;98256.44;4983560;28;19922;-79
2024/01/23 00:41:21;;;;;;;;;;;;;;;24.03;22.74;98258.69;4974270;28;19922;-79
2024/01/23 00:43:47;;;;;;;;;;;;;;;24.63;22.21;98246.28;4969392;28;20389;-79
2024/01/23 00:46:14;;;;;;;;;;;;;;;24.68;22.05;98251.38;4960196;28;20000;-79
2024/01/23 00:48:40;;;;;;;;;;;;;;;24.70;22.15;98258.16;4961318;28;20301;-79
2024/01/23 00:51:06;;;;;;;;;;;;;;;24.48;22.42;98273.84;4973337;28;19941;-79
2024/01/23 00:53:32;;;;;;;;;;;;;;;24.37;22.58;98272.47;4982624;28;20382;-79
2024/01/23 00:55:58;;;;;;;;;;;;;;;24.66;22.39;98282.72;4954140;28;19928;-79
2024/01/23 00:58:24;;;;;;;;;;;;;;;23.64;23.06;98281.81;4965548;28;20381;-79
2024/01/23 01:00:50;;;;;;;;;;;;;;;22.97;24.20;98291.25;4955614;28;20039;-79
2024/01/23 01:03:17;;;;;;;;;;;;;;;23.86;23.22;98287.84;4965610;28;19919;-79
2024/01/23 01:05:43;;;;;;;;;;;;;;;23.65;23.27;98297.44;4965085;28;19945;-79
2024/01/23 01:08:09;;;;;;;;;;;;;;;24.08;22.87;98293.91;4949865;28;19976;-79
2024/01/23 01:10:35;;;;;;;;;;;;;;;24.30;22.64;98295.06;4972859;28;19922;-79
2024/01/23 01:13:01;;;;;;;;;;;;;;;24.41;22.65;98287.25;4970449;28;19922;-79
2024/01/23 01:15:27;;;;;;;;;;;;;;;24.42;22.80;98288.81;4969021;28;19945;-79
2024/01/23 01:17:53;;;;;;;;;;;;;;;24.93;21.88;98285.34;4963616;28;19918;-78
2024/01/23 01:20:19;;;;;;;;;;;;;;;24.60;22.36;98283.63;4966205;28;19922;-79
2024/01/23 01:22:45;;;;;;;;;;;;;;;24.90;21.74;98277.78;4977614;28;19924;-79
2024/01/23 01:25:11;;;;;;;;;;;;;;;24.72;21.93;98283.78;4984759;28;19921;-79
2024/01/23 01:27:37;;;;;;;;;;;;;;;25.27;21.22;98277.38;4969230;28;20438;-79
2024/01/23 01:30:04;;;;;;;;;;;;;;;25.12;21.69;98273.28;4969949;28;19961;-79
2024/01/23 01:32:30;;;;;;;;;;;;;;;25.36;21.31;98276.75;4969701;28;19984;-79
2024/01/23 01:34:56;;;;;;;;;;;;;;;25.40;21.17;98271.81;4967086;28;19918;-78
2024/01/23 01:37:23;;;;;;;;;;;;;;;25.67;20.97;98266.75;4965566;28;19928;-79
2024/01/23 01:39:49;;;;;;;;;;;;;;;25.41;21.12;98265.00;4969344;28;19929;-79
2024/01/23 01:42:15;;;;;;;;;;;;;;;24.89;21.56;98255.78;4969862;28;19922;-78
2024/01/23 01:44:41;;;;;;;;;;;;;;;25.04;21.58;98252.19;4968686;28;19922;-79
2024/01/23 01:47:08;;;;;;;;;;;;;;;24.72;21.83;98254.91;4967332;28;19949;-78
2024/01/23 01:49:34;;;;;;;;;;;;;;;24.34;22.33;98250.91;4963778;28;19929;-79
2024/01/23 01:52:01;;;;;;;;;;;;;;;24.52;22.10;98251.34;4977808;28;19930;-78
2024/01/23 01:54:27;;;;;;;;;;;;;;;24.53;22.12;98242.47;4975188;28;20297;-79
2024/01/23 01:56:54;;;;;;;;;;;;;;;24.51;22.10;98244.13;4941473;28;19923;-79
2024/01/23 01:59:20;;;;;;;;;;;;;;;24.70;22.08;98237.69;4970894;28;19926;-79
2024/01/23 02:01:46;;;;;;;;;;;;;;;24.91;21.75;98247.69;4963269;28;19922;-79
2024/01/23 02:04:13;;;;;;;;;;;;;;;24.70;21.74;98246.91;4966524;28;19965;-79
2024/01/23 02:06:39;;;;;;;;;;;;;;;24.69;21.83;98245.31;4974387;28;19933;-79
2024/01/23 02:09:05;;;;;;;;;;;;;;;25.16;21.15;98248.69;4961544;28;19968;-79
2024/01/23 02:11:31;;;;;;;;;;;;;;;24.72;21.61;98243.66;4969478;28;19965;-79
2024/01/23 02:13:57;;;;;;;;;;;;;;;24.63;21.81;98244.28;4971496;28;19922;-79
2024/01/23 02:16:23;;;;;;;;;;;;;;;24.48;22.07;98240.16;4974882;28;20385;-79
2024/01/23 02:18:49;;;;;;;;;;;;;;;24.00;22.60;98243.53;4970291;28;20404;-79
2024/01/23 02:21:15;;;;;;;;;;;;;;;24.08;22.49;98237.81;4964196;28;19926;-79
2024/01/23 02:23:42;;;;;;;;;;;;;;;24.12;22.63;98236.50;4962995;28;19918;-79
2024/01/23 02:26:08;;;;;;;;;;;;;;;24.16;22.62;98239.22;4975493;28;19922;-79
2024/01/23 02:28:34;;;;;;;;;;;;;;;24.46;21.82;98247.44;4969932;28;20008;-79
2024/01/23 02:31:00;;;;;;;;;;;;;;;24.32;22.41;98242.13;4968804;28;19918;-79
2024/01/23 02:33:26;;;;;;;;;;;;;;;24.36;22.30;98234.44;4959036;28;20297;-79
2024/01/23 02:35:52;;;;;;;;;;;;;;;24.22;22.30;98249.53;4946347;28;19921;-79
2024/01/23 02:38:18;;;;;;;;;;;;;;;23.77;22.64;98242.75;4973820;28;20004;-79
2024/01/23 02:40:44;;;;;;;;;;;;;;;24.40;22.05;98246.38;4966041;28;19929;-79
2024/01/23 02:43:10;;;;;;;;;;;;;;;24.17;22.30;98255.66;4968650;28;20349;-79
2024/01/23 02:45:36;;;;;;;;;;;;;;;24.36;22.15;98254.06;4972237;28;19926;-79
2024/01/23 02:48:03;;;;;;;;;;;;;;;24.51;22.02;98256.16;4972604;28;19969;-78
2024/01/23 02:50:29;;;;;;;;;;;;;;;24.27;22.49;98259.47;4969764;28;19969;-78
2024/01/23 02:52:55;;;;;;;;;;;;;;;24.71;21.95;98267.38;4969661;28;20016;-78
2024/01/23 02:55:21;;;;;;;;;;;;;;;24.02;22.62;98273.94;4972543;28;19930;-79
2024/01/23 02:57:47;;;;;;;;;;;;;;;24.11;22.29;98276.22;4971907;28;19981;-79
2024/01/23 03:00:13;;;;;;;;;;;;;;;24.01;22.60;98267.53;4965289;28;20341;-79
2024/01/23 03:02:39;;;;;;;;;;;;;;;24.43;22.38;98267.97;4968290;28;19949;-79
2024/01/23 03:05:05;;;;;;;;;;;;;;;24.91;21.72;98265.34;4966823;28;20369;-79
2024/01/23 03:07:31;;;;;;;;;;;;;;;24.90;21.64;98260.94;4962058;28;19941;-79
2024/01/23 03:09:57;;;;;;;;;;;;;;;25.27;21.51;98256.91;4966070;28;19922;-79
2024/01/23 03:12:24;;;;;;;;;;;;;;;25.55;21.07;98249.81;4964620;28;20122;-79
2024/01/23 03:14:50;;;;;;;;;;;;;;;25.66;20.90;98245.50;4967132;28;19922;-79
2024/01/23 03:17:16;;;;;;;;;;;;;;;25.90;20.63;98248.91;4971724;28;20400;-79
2024/01/23 03:19:43;;;;;;;;;;;;;;;25.92;20.67;98247.22;4971896;28;20408;-79
2024/01/23 03:22:09;;;;;;;;;;;;;;;25.88;20.37;98254.19;4968816;28;19922;-79
2024/01/23 03:24:39;;;;;;;;;;;;;;;25.53;20.79;98255.09;4974764;28;19926;-79
2024/01/23 03:27:06;;;;;;;;;;;;;;;25.23;21.08;98262.59;4966917;28;19919;-79
2024/01/23 03:29:40;;;;;;;;;;;;;;;25.45;21.14;98246.03;4972187;28;20021;-79
2024/01/23 03:32:06;;;;;;;;;;;;;;;25.79;20.58;98251.22;4976399;28;19996;-79
2024/01/23 03:34:33;;;;;;;;;;;;;;;25.72;20.84;98257.78;4968609;28;19980;-79
2024/01/23 03:37:02;;;;;;;;;;;;;;;25.95;20.58;98251.19;4970989;28;19933;-79
2024/01/23 03:39:28;;;;;;;;;;;;;;;26.14;20.54;98250.25;4975262;28;20032;-79
2024/01/23 03:41:55;;;;;;;;;;;;;;;26.02;20.51;98251.75;4973795;28;19918;-79
2024/01/23 03:44:21;;;;;;;;;;;;;;;25.89;20.32;98261.38;4969857;28;20371;-79
2024/01/23 03:46:47;;;;;;;;;;;;;;;25.81;20.40;98263.56;4974354;28;20013;-79
2024/01/23 03:49:13;;;;;;;;;;;;;;;25.99;20.42;98263.13;4966969;28;20000;-79
2024/01/23 03:51:40;;;;;;;;;;;;;;;26.01;20.51;98263.47;4976979;28;19983;-79
2024/01/23 03:54:06;;;;;;;;;;;;;;;25.98;20.53;98278.41;4964068;28;19929;-79
2024/01/23 03:56:32;;;;;;;;;;;;;;;26.17;20.20;98282.34;4977602;28;20369;-79
2024/01/23 03:58:58;;;;;;;;;;;;;;;26.30;19.99;98277.59;4963947;28;19926;-79
2024/01/23 04:01:24;;;;;;;;;;;;;;;25.92;20.42;98274.56;4971798;28;19926;-79
2024/01/23 04:03:50;;;;;;;;;;;;;;;25.39;20.92;98271.03;4973110;28;19918;-79
2024/01/23 04:06:16;;;;;;;;;;;;;;;25.51;21.01;98274.44;4956853;28;19993;-78
2024/01/23 04:08:43;;;;;;;;;;;;;;;25.68;20.76;98262.72;4969398;28;19923;-78
2024/01/23 04:11:09;;;;;;;;;;;;;;;25.90;20.25;98265.78;4968997;28;19922;-78
2024/01/23 04:13:35;;;;;;;;;;;;;;;25.84;20.30;98273.16;4967605;28;19929;-78
2024/01/23 04:16:02;;;;;;;;;;;;;;;25.85;20.39;98271.94;4970345;28;20342;-78
2024/01/23 04:18:28;;;;;;;;;;;;;;;25.92;20.31;98278.16;4955650;29;19923;-78
2024/01/23 04:20:54;;;;;;;;;;;;;;;25.99;20.44;98286.44;4941801;28;19922;-78
2024/01/23 04:23:20;;;;;;;;;;;;;;;25.96;19.96;98286.50;4959641;28;19922;-78
2024/01/23 04:25:46;;;;;;;;;;;;;;;25.84;19.98;98287.22;4969042;28;20298;-78
2024/01/23 04:28:12;;;;;;;;;;;;;;;25.91;20.21;98284.22;4973666;28;19922;-78
2024/01/23 04:30:38;;;;;;;;;;;;;;;25.42;20.59;98291.84;4974438;28;19926;-79
2024/01/23 04:33:04;;;;;;;;;;;;;;;25.37;20.82;98283.94;4966014;28;19969;-79
2024/01/23 04:35:30;;;;;;;;;;;;;;;25.22;20.66;98283.50;4954196;29;20018;-79
2024/01/23 04:37:56;;;;;;;;;;;;;;;25.28;20.88;98286.56;4963422;28;20005;-79
2024/01/23 04:40:22;;;;;;;;;;;;;;;25.50;20.70;98286.88;4962018;28;20013;-79
2024/01/23 04:42:48;;;;;;;;;;;;;;;25.75;20.47;98289.88;4969579;28;19972;-78
2024/01/23 04:45:14;;;;;;;;;;;;;;;26.07;20.14;98301.06;4967045;28;19918;-79
2024/01/23 04:47:40;;;;;;;;;;;;;;;26.46;19.60;98300.06;4960611;28;19918;-78
2024/01/23 04:50:06;;;;;;;;;;;;;;;26.54;19.51;98301.41;4968946;28;20501;-78
2024/01/23 04:52:32;;;;;;;;;;;;;;;26.45;19.66;98299.25;4959112;28;20453;-79
2024/01/23 04:54:58;;;;;;;;;;;;;;;26.54;19.20;98299.41;4971364;28;19930;-78
2024/01/23 04:57:31;;;;;;;;;;;;;;;26.61;19.73;98299.19;4970453;28;19930;-79
2024/01/23 04:59:59;;;;;;;;;;;;;;;26.61;19.25;98299.19;4976100;28;19930;-78
2024/01/23 05:02:26;;;;;;;;;;;;;;;26.46;19.37;98300.84;4964642;28;19972;-78
2024/01/23 05:04:52;;;;;;;;;;;;;;;26.12;20.07;98296.97;4962151;28;20013;-78
2024/01/23 05:07:19;;;;;;;;;;;;;;;26.16;19.64;98294.88;4955941;28;19929;-78
2024/01/23 05:09:45;;;;;;;;;;;;;;;26.26;19.41;98299.41;4963500;28;19922;-79
2024/01/23 05:12:11;;;;;;;;;;;;;;;26.20;19.49;98310.44;4970627;28;20013;-78
2024/01/23 05:14:37;;;;;;;;;;;;;;;26.19;19.64;98310.84;4968360;28;19926;-79
2024/01/23 05:17:03;;;;;;;;;;;;;;;26.25;19.83;98303.47;4965691;28;19948;-79
2024/01/23 05:19:29;;;;;;;;;;;;;;;26.34;19.31;98310.03;4962515;28;19923;-78
2024/01/23 05:21:55;;;;;;;;;;;;;;;26.48;19.26;98315.28;4970497;28;19929;-78
2024/01/23 05:24:21;;;;;;;;;;;;;;;26.36;19.18;98315.22;4967569;28;19965;-78
2024/01/23 05:26:47;;;;;;;;;;;;;;;26.22;19.61;98326.84;4972860;28;19918;-78
2024/01/23 05:29:13;;;;;;;;;;;;;;;26.17;19.05;98318.94;4960238;28;19934;-78
2024/01/23 05:31:39;;;;;;;;;;;;;;;26.28;19.50;98316.66;4960730;28;20405;-79
2024/01/23 05:34:05;;;;;;;;;;;;;;;26.09;19.32;98316.28;4968410;28;19964;-77
2024/01/23 05:36:31;;;;;;;;;;;;;;;26.03;19.34;98314.47;4965940;28;19969;-78
2024/01/23 05:38:57;;;;;;;;;;;;;;;25.85;19.72;98319.75;4963281;28;19961;-77
2024/01/23 05:41:24;;;;;;;;;;;;;;;25.66;19.80;98324.25;4971081;28;20361;-77
2024/01/23 05:43:50;;;;;;;;;;;;;;;25.61;19.67;98326.78;4965474;28;19926;-77
2024/01/23 05:46:17;;;;;;;;;;;;;;;25.74;19.75;98327.69;4964714;28;19926;-78
2024/01/23 05:48:43;;;;;;;;;;;;;;;25.88;19.43;98328.09;4973000;28;20373;-78
2024/01/23 05:51:09;;;;;;;;;;;;;;;25.92;19.37;98340.06;4965189;28;19965;-78
2024/01/23 05:53:36;;;;;;;;;;;;;;;25.89;19.51;98331.69;4970614;28;20012;-78
2024/01/23 05:56:02;;;;;;;;;;;;;;;25.63;19.60;98341.19;4969286;28;19922;-79
2024/01/23 05:58:28;;;;;;;;;;;;;;;25.55;19.53;98334.16;4972178;28;20017;-78
2024/01/23 06:00:54;;;;;;;;;;;;;;;25.35;19.78;98345.44;4960700;28;20378;-78
2024/01/23 06:03:20;;;;;;;;;;;;;;;25.30;19.80;98337.50;4967626;28;19925;-79
2024/01/23 06:05:46;;;;;;;;;;;;;;;25.34;19.86;98336.19;4960247;28;19922;-78
2024/01/23 06:08:12;;;;;;;;;;;;;;;25.17;19.98;98348.66;4972270;28;19929;-78
2024/01/23 06:10:38;;;;;;;;;;;;;;;24.39;20.82;98349.41;4975261;28;19918;-77
2024/01/23 06:13:04;;;;;;;;;;;;;;;24.45;21.13;98353.31;4968099;28;19929;-78
2024/01/23 06:15:33;;;;;;;;;;;;;;;24.76;20.42;98350.31;4974150;28;19940;-78
2024/01/23 06:17:59;;;;;;;;;;;;;;;24.90;20.43;98345.22;4973811;28;19925;-78
2024/01/23 06:20:25;;;;;;;;;;;;;;;24.99;20.13;98353.88;4965270;28;20053;-78
2024/01/23 06:22:51;;;;;;;;;;;;;;;24.85;20.39;98345.75;4983270;28;19985;-78
2024/01/23 06:25:17;;;;;;;;;;;;;;;24.12;21.52;98343.13;4958128;28;19926;-77
2024/01/23 06:27:43;;;;;;;;;;;;;;;23.68;21.60;98347.03;4964827;28;19922;-78
2024/01/23 06:30:11;;;;;;;;;;;;;;;23.55;21.84;98348.84;4972342;28;19997;-78
2024/01/23 06:32:37;;;;;;;;;;;;;;;23.75;21.50;98337.72;4969176;28;20021;-78
2024/01/23 06:35:04;;;;;;;;;;;;;;;23.60;21.58;98353.97;4963552;28;20366;-78
2024/01/23 06:37:30;;;;;;;;;;;;;;;23.36;21.95;98355.94;4970509;28;19925;-78
2024/01/23 06:39:56;;;;;;;;;;;;;;;23.52;21.77;98366.53;4964074;28;19930;-78
2024/01/23 06:42:22;;;;;;;;;;;;;;;23.31;22.04;98373.19;4972460;28;19940;-78
2024/01/23 06:44:48;;;;;;;;;;;;;;;22.95;22.80;98374.09;4962794;28;19922;-78
2024/01/23 06:47:16;;;;;;;;;;;;;;;23.26;22.46;98382.06;4975193;28;19924;-78
2024/01/23 06:49:42;;;;;;;;;;;;;;;23.06;22.44;98395.13;4972249;28;19922;-78
2024/01/23 06:52:08;;;;;;;;;;;;;;;23.69;21.90;98395.47;4962140;28;19977;-78
2024/01/23 06:54:34;;;;;;;;;;;;;;;24.38;20.91;98392.75;4974638;28;19960;-78
2024/01/23 06:57:01;;;;;;;;;;;;;;;24.81;20.62;98387.13;4959841;28;19945;-77
2024/01/23 06:59:27;;;;;;;;;;;;;;;24.52;20.53;98403.72;4970714;28;19931;-78
2024/01/23 07:01:53;;;;;;;;;;;;;;;24.45;20.93;98405.84;4970873;28;20322;-78
2024/01/23 07:04:19;;;;;;;;;;;;;;;24.40;20.87;98400.72;4958321;28;19925;-78
2024/01/23 07:06:45;;;;;;;;;;;;;;;24.00;21.32;98405.41;4975050;28;19923;-78
2024/01/23 07:09:11;;;;;;;;;;;;;;;23.69;21.55;98423.50;4967873;28;19919;-78
2024/01/23 07:11:41;;;;;;;;;;;;;;;24.02;21.46;98426.19;4971572;28;20164;-78
2024/01/23 07:14:07;;;;;;;;;;;;;;;24.30;20.89;98424.16;4964614;28;19922;-78
2024/01/23 07:16:33;;;;;;;;;;;;;;;23.95;21.63;98431.94;4970893;28;19918;-79
2024/01/23 07:19:00;;;;;;;;;;;;;;;24.38;20.92;98434.84;4965691;28;19969;-78
2024/01/23 07:21:26;;;;;;;;;;;;;;;24.72;20.66;98435.41;4979184;28;20087;-77
2024/01/23 07:23:52;;;;;;;;;;;;;;;25.01;20.22;98430.06;4965516;28;19988;-77
2024/01/23 07:26:18;;;;;;;;;;;;;;;24.89;20.59;98432.72;4966494;28;20266;-77
2024/01/23 07:28:44;;;;;;;;;;;;;;;24.18;21.04;98444.44;4975788;28;20413;-77
2024/01/23 07:31:11;;;;;;;;;;;;;;;23.93;21.42;98439.97;4974746;28;19922;-78
2024/01/23 07:33:37;;;;;;;;;;;;;;;24.56;20.86;98445.75;4973208;28;19973;-77
2024/01/23 07:36:03;;;;;;;;;;;;;;;24.78;20.56;98454.63;4963069;28;19969;-77
2024/01/23 07:38:30;;;;;;;;;;;;;;;24.12;21.43;98451.72;4970174;28;19954;-77
2024/01/23 07:40:56;;;;;;;;;;;;;;;23.86;21.66;98458.91;4964073;28;19926;-77
2024/01/23 07:43:24;;;;;;;;;;;;;;;24.10;21.59;98454.97;4964282;28;19918;-77
2024/01/23 07:45:50;;;;;;;;;;;;;;;23.64;22.04;98466.06;4975354;28;19918;-77
2024/01/23 07:48:16;;;;;;;;;;;;;;;24.07;21.53;98460.63;4963364;28;19973;-77
2024/01/23 07:50:42;;;;;;;;;;;;;;;24.38;21.46;98462.13;4955989;29;20020;-77
2024/01/23 07:53:08;;;;;;;;;;;;;;;24.62;21.25;98458.09;4956011;29;19965;-78
2024/01/23 07:55:34;;;;;;;;;;;;;;;25.22;20.33;98460.56;4959119;28;19922;-77
2024/01/23 07:58:00;;;;;;;;;;;;;;;25.74;20.16;98462.69;4962922;28;19922;-77
2024/01/23 08:00:26;;;;;;;;;;;;;;;26.02;19.89;98456.41;4965961;28;19930;-77
2024/01/23 08:02:52;;;;;;;;;;;;;;;26.32;19.88;98460.94;4972078;28;19925;-78
2024/01/23 08:05:19;;;;;;;;;;;;;;;26.27;19.65;98462.25;4973626;28;20351;-77
2024/01/23 08:07:45;;;;;;;;;;;;;;;26.19;19.72;98465.66;4974585;28;20038;-78
2024/01/23 08:10:11;;;;;;;;;;;;;;;24.86;21.32;98476.50;4974018;28;20286;-77
2024/01/23 08:12:37;;;;;;;;;;;;;;;24.55;21.38;98475.06;4972382;28;19948;-77
2024/01/23 08:15:04;;;;;;;;;;;;;;;25.41;20.65;98482.22;4969096;28;20366;-78
2024/01/23 08:17:30;;;;;;;;;;;;;;;24.80;21.16;98483.06;4955537;29;19914;-77
2024/01/23 08:19:56;;;;;;;;;;;;;;;24.80;21.04;98497.91;4955714;29;19919;-78
2024/01/23 08:22:22;;;;;;;;;;;;;;;24.80;21.29;98491.47;4969339;28;19922;-78
2024/01/23 08:24:48;;;;;;;;;;;;;;;24.76;21.28;98500.00;4958093;28;19922;-78
2024/01/23 08:27:14;;;;;;;;;;;;;;;24.58;21.36;98510.69;4955489;29;19926;-77
2024/01/23 08:29:40;;;;;;;;;;;;;;;24.76;21.44;98513.19;4960569;28;19922;-78
2024/01/23 08:32:06;;;;;;;;;;;;;;;25.11;21.19;98512.56;4960097;28;20366;-78
2024/01/23 08:34:32;;;;;;;;;;;;;;;25.30;20.94;98521.00;4956636;28;19931;-78
2024/01/23 08:36:58;;;;;;;;;;;;;;;25.87;20.58;98515.00;4953450;29;20371;-78
2024/01/23 08:39:27;;;;;;;;;;;;;;;26.18;20.07;98524.00;4969517;28;20413;-78
2024/01/23 08:41:53;;;;;;;;;;;;;;;25.93;20.33;98529.34;4974583;28;19965;-78
2024/01/23 08:44:21;;;;;;;;;;;;;;;26.17;20.00;98530.84;4974325;28;19950;-78
2024/01/23 08:46:48;;;;;;;;;;;;;;;25.91;20.11;98529.00;4972478;28;19922;-78
2024/01/23 08:49:15;;;;;;;;;;;;;;;26.20;20.43;98532.78;4960950;28;19946;-78
2024/01/23 08:51:41;;;;;;;;;;;;;;;26.17;20.67;98541.31;4955576;29;19918;-78
2024/01/23 08:54:07;;;;;;;;;;;;;;;26.82;19.89;98537.31;4955234;29;20008;-78
2024/01/23 08:56:34;;;;;;;;;;;;;;;27.01;19.83;98524.34;4954946;28;20267;-78
2024/01/23 08:59:00;;;;;;;;;;;;;;;27.35;19.50;98530.25;4975815;28;19926;-78
2024/01/23 09:01:26;;;;;;;;;;;;;;;27.40;19.21;98538.19;4977400;28;19922;-78
2024/01/23 09:03:52;;;;;;;;;;;;;;;27.55;19.29;98532.94;4976320;28;19924;-78
2024/01/23 09:06:18;;;;;;;;;;;;;;;27.62;18.78;98533.53;4963882;28;19919;-78
2024/01/23 09:08:44;;;;;;;;;;;;;;;27.92;18.83;98537.88;4959824;28;19925;-78
2024/01/23 09:11:10;;;;;;;;;;;;;;;27.78;18.63;98544.72;4961069;28;19922;-78
2024/01/23 09:13:37;;;;;;;;;;;;;;;27.67;18.87;98543.47;4971190;28;19926;-78
2024/01/23 09:16:04;;;;;;;;;;;;;;;27.79;18.32;98539.88;4976819;28;19918;-78
2024/01/23 09:18:30;;;;;;;;;;;;;;;27.63;18.80;98542.78;4978450;28;19985;-78
2024/01/23 09:20:56;;;;;;;;;;;;;;;27.93;18.56;98543.06;4977836;28;19919;-78
2024/01/23 09:23:23;;;;;;;;;;;;;;;28.24;18.46;98540.50;4974726;28;19925;-78
2024/01/23 09:25:49;;;;;;;;;;;;;;;28.30;18.19;98535.91;4973508;28;19977;-78
2024/01/23 09:28:15;;;;;;;;;;;;;;;27.82;18.72;98533.34;4966202;28;19922;-78
2024/01/23 09:30:43;;;;;;;;;;;;;;;27.03;19.28;98533.94;4977475;28;19928;-79
2024/01/23 09:33:09;;;;;;;;;;;;;;;27.53;18.99;98541.03;4965628;28;19918;-78
2024/01/23 09:35:35;;;;;;;;;;;;;;;27.62;18.92;98541.97;4970784;28;19966;-78
2024/01/23 09:38:01;;;;;;;;;;;;;;;27.87;18.72;98546.88;4966890;28;19928;-78
2024/01/23 09:40:27;;;;;;;;;;;;;;;27.46;18.84;98544.06;4962106;28;19923;-78
2024/01/23 09:42:55;;;;;;;;;;;;;;;27.04;19.76;98535.53;4958567;29;20005;-78
2024/01/23 09:45:25;;;;;;;;;;;;;;;25.98;20.09;98545.72;4958087;29;19919;-78
2024/01/23 09:47:51;;;;;;;;;;;;;;;26.69;19.64;98536.41;4959206;28;20017;-78
2024/01/23 09:50:18;;;;;;;;;;;;;;;26.52;19.68;98541.25;4958119;29;20013;-78
2024/01/23 09:52:44;;;;;;;;;;;;;;;26.44;20.38;98542.66;4958447;29;20479;-78
2024/01/23 09:55:10;;;;;;;;;;;;;;;26.45;19.52;98551.91;4966007;28;19918;-78
2024/01/23 09:57:40;;;;;;;;;;;;;;;26.17;20.21;98544.91;4960987;28;19930;-78
2024/01/23 10:00:07;;;;;;;;;;;;;;;26.67;19.56;98536.88;4963229;28;20408;-78
2024/01/23 10:02:34;;;;;;;;;;;;;;;27.03;19.19;98542.38;4967322;28;20380;-78
2024/01/23 10:05:00;;;;;;;;;;;;;;;26.64;19.30;98546.19;4976117;28;19918;-78
2024/01/23 10:07:26;;;;;;;;;;;;;;;27.13;18.89;98546.16;4996425;28;19918;-78
2024/01/23 10:09:58;;;;;;;;;;;;;;;27.37;18.72;98551.16;4995915;28;19940;-78
2024/01/23 10:12:24;;;;;;;;;;;;;;;27.16;18.84;98551.72;4976824;28;19958;-78
2024/01/23 10:14:50;;;;;;;;;;;;;;;26.66;19.15;98543.72;4958753;28;19918;-78
2024/01/23 10:17:16;;;;;;;;;;;;;;;26.38;19.88;98560.50;4957774;29;20323;-78
2024/01/23 10:19:42;;;;;;;;;;;;;;;26.21;19.84;98561.75;4940628;29;20278;-78
2024/01/23 10:22:08;;;;;;;;;;;;;;;26.48;19.76;98570.75;4967423;28;20017;-78
2024/01/23 10:24:34;;;;;;;;;;;;;;;26.46;19.83;98564.75;4976825;28;20374;-78
2024/01/23 10:27:00;;;;;;;;;;;;;;;26.53;19.64;98558.94;4976870;28;19945;-78
2024/01/23 10:29:26;;;;;;;;;;;;;;;26.44;19.58;98573.63;4976708;28;19985;-78
2024/01/23 10:31:52;;;;;;;;;;;;;;;26.87;19.40;98564.16;4957359;28;19962;-78
2024/01/23 10:34:19;;;;;;;;;;;;;;;27.14;18.96;98561.84;4958956;28;19922;-78
2024/01/23 10:36:45;;;;;;;;;;;;;;;26.80;19.07;98559.50;4976173;28;19918;-78
2024/01/23 10:39:12;;;;;;;;;;;;;;;27.19;18.96;98564.91;4976504;28;19925;-78
2024/01/23 10:41:39;;;;;;;;;;;;;;;26.88;19.35;98571.38;4976462;28;20289;-78
2024/01/23 10:44:07;;;;;;;;;;;;;;;27.38;19.13;98578.09;4975040;28;19922;-78
2024/01/23 10:46:33;;;;;;;;;;;;;;;27.18;18.81;98579.44;4972634;28;20379;-78
2024/01/23 10:49:02;;;;;;;;;;;;;;;27.23;19.10;98590.19;4961290;28;19925;-78
2024/01/23 10:51:31;;;;;;;;;;;;;;;27.46;18.50;98590.00;4966333;28;19933;-78
2024/01/23 10:54:08;;;;;;;;;;;;;;;27.85;18.63;98600.16;4973301;28;19922;-78
2024/01/23 10:56:40;;;;;;;;;;;;;;;27.54;18.67;98591.38;4975868;28;19953;-79
2024/01/23 10:59:14;;;;;;;;;;;;;;;27.72;18.51;98597.31;4976283;28;19969;-78
2024/01/23 11:01:42;;;;;;;;;;;;;;;28.01;18.40;98600.13;4973960;28;20405;-78
2024/01/23 11:04:08;;;;;;;;;;;;;;;27.97;18.54;98596.59;4968564;28;19966;-79
2024/01/23 11:06:36;;;;;;;;;;;;;;;28.05;18.51;98595.94;4968889;28;19919;-79
2024/01/23 11:09:12;;;;;;;;;;;;;;;28.08;18.37;98600.72;4958656;28;20005;-78
2024/01/23 11:11:49;;;;;;;;;;;;;;;26.97;19.59;98599.75;4976051;28;20285;-78
2024/01/23 11:14:26;;;;;;;;;;;;;;;27.00;19.48;98605.28;4974984;28;20459;-78
2024/01/23 11:17:13;;;;;;;;;;;;;;;26.09;20.34;98606.16;4974489;28;19945;-78
2024/01/23 11:19:42;;;;;;;;;;;;;;;26.64;19.91;98599.72;4976021;28;19926;-78
2024/01/23 11:22:09;;;;;;;;;;;;;;;26.67;20.13;98601.66;4962267;28;19998;-78
2024/01/23 11:24:42;;;;;;;;;;;;;;;26.03;20.19;98605.09;4939255;28;20012;-78
2024/01/23 11:27:18;;;;;;;;;;;;;;;24.87;21.61;98612.94;4962705;28;20018;-78
2024/01/23 11:29:45;;;;;;;;;;;;;;;24.01;22.55;98623.75;4956458;28;19930;-79
2024/01/23 11:32:23;;;;;;;;;;;;;;;23.29;24.32;98630.56;4954821;29;20437;-79
2024/01/23 11:35:00;;;;;;;;;;;;;;;24.39;22.88;98630.09;4954490;29;19941;-79
2024/01/23 11:37:38;;;;;;;;;;;;;;;24.97;22.06;98613.97;4966742;28;19969;-79
2024/01/23 11:40:05;;;;;;;;;;;;;;;24.91;22.31;98627.72;4955936;29;19918;-79
2024/01/23 11:42:58;;;;;;;;;;;;;;;24.37;23.05;98634.53;4964478;28;20374;-79
2024/01/23 11:45:28;;;;;;;;;;;;;;;23.64;23.60;98640.63;4969846;28;19976;-79
2024/01/23 11:47:56;;;;;;;;;;;;;;;23.93;23.74;98639.09;4967880;28;19929;-79
2024/01/23 11:50:22;;;;;;;;;;;;;;;23.83;23.66;98642.81;4957797;28;19922;-79
2024/01/23 11:52:49;;;;;;;;;;;;;;;23.21;24.60;98639.47;4956397;29;19918;-79
2024/01/23 11:55:17;;;;;;;;;;;;;;;23.42;24.21;98638.50;4966201;28;20330;-79
2024/01/23 11:57:43;;;;;;;;;;;;;;;23.52;24.31;98648.81;4956928;28;19923;-79
2024/01/23 12:00:09;;;;;;;;;;;;;;;23.88;23.89;98649.97;4955611;29;20021;-79
2024/01/23 12:02:35;;;;;;;;;;;;;;;24.43;22.99;98652.50;4953662;29;19941;-79
2024/01/23 12:05:01;;;;;;;;;;;;;;;24.92;22.73;98642.56;4954202;28;20298;-80
2024/01/23 12:07:28;;;;;;;;;;;;;;;25.68;21.90;98644.41;4955758;28;19918;-79
2024/01/23 12:09:54;;;;;;;;;;;;;;;26.06;21.37;98646.44;4974887;28;19922;-80
2024/01/23 12:12:20;;;;;;;;;;;;;;;26.54;20.97;98648.63;4968398;28;19932;-79
2024/01/23 12:14:46;;;;;;;;;;;;;;;26.72;20.67;98651.06;4955853;29;20021;-79
2024/01/23 12:17:12;;;;;;;;;;;;;;;25.65;21.66;98657.31;4955786;29;19919;-79
2024/01/23 12:19:44;;;;;;;;;;;;;;;25.53;22.15;98669.22;4956729;28;19929;-80
2024/01/23 12:22:10;;;;;;;;;;;;;;;25.43;21.99;98664.53;4962005;28;19928;-79
2024/01/23 12:24:37;;;;;;;;;;;;;;;25.55;21.97;98660.34;4974653;28;19930;-79
2024/01/23 12:27:04;;;;;;;;;;;;;;;25.29;22.44;98662.78;4974910;28;19922;-79
2024/01/23 12:29:30;;;;;;;;;;;;;;;25.53;22.07;98669.22;4967006;28;20405;-79
2024/01/23 12:31:56;;;;;;;;;;;;;;;25.93;21.98;98658.78;4973166;28;20251;-79
2024/01/23 12:34:22;;;;;;;;;;;;;;;26.45;21.51;98658.91;4972049;28;19925;-80
2024/01/23 12:36:51;;;;;;;;;;;;;;;26.30;21.61;98663.28;4973579;28;19962;-79
2024/01/23 12:39:17;;;;;;;;;;;;;;;26.57;21.39;98661.84;4974048;28;19930;-79
2024/01/23 12:41:44;;;;;;;;;;;;;;;27.13;21.03;98665.34;4963432;28;19970;-79
2024/01/23 12:44:10;;;;;;;;;;;;;;;27.53;20.65;98668.78;4955594;28;19926;-79
2024/01/23 12:46:36;;;;;;;;;;;;;;;27.61;20.49;98658.88;4965859;28;19919;-80